Time;durP1;ratioP1;P1;durP2;ratioP2;P2;SDS_P1;SDS_P2;PMS_P1;PMS_P2;Temp;Humidity;BMP_temperature;BMP_pressure;BME280_temperature;BME280_humidity;BME280_pressure;Samples;Min_cycle;Max_cycle;Signal;HPM_P1;HPM_P2
2023/06/26 00:01:02;;;;;;;;;18.00;17.00;;;;;24.62;49.60;99268.84;5072594;28;45579;-80
2023/06/26 00:03:28;;;;;;;;;19.00;15.75;;;;;24.64;50.00;99284.84;5088940;27;46572;-80
2023/06/26 00:05:54;;;;;;;;;16.00;16.00;;;;;24.66;50.50;99285.53;5084930;27;45381;-80
2023/06/26 00:08:19;;;;;;;;;18.25;17.00;;;;;24.69;50.19;99287.94;5089890;27;45509;-80
2023/06/26 00:10:46;;;;;;;;;18.00;17.00;;;;;24.68;49.83;99291.63;5084549;27;45403;-80
2023/06/26 00:13:12;;;;;;;;;15.75;15.75;;;;;24.63;50.04;99289.38;5095116;27;45431;-80
2023/06/26 00:15:37;;;;;;;;;19.00;18.25;;;;;24.59;50.70;99289.84;5105130;27;45436;-80
2023/06/26 00:18:03;;;;;;;;;17.25;15.00;;;;;24.56;50.75;99300.91;5077707;27;45473;-80
2023/06/26 00:20:28;;;;;;;;;18.00;16.25;;;;;24.50;50.94;99296.94;5090967;27;45569;-80
2023/06/26 00:22:55;;;;;;;;;18.75;17.50;;;;;24.48;51.20;99296.22;5090243;27;46382;-80
2023/06/26 00:25:20;;;;;;;;;18.50;16.75;;;;;24.43;51.26;99294.97;5070323;27;45468;-80
2023/06/26 00:27:46;;;;;;;;;16.25;15.00;;;;;24.36;51.33;99292.00;5093694;27;45467;-80
2023/06/26 00:30:12;;;;;;;;;16.75;16.00;;;;;24.32;51.38;99293.28;5095639;27;45425;-80
2023/06/26 00:32:37;;;;;;;;;18.50;17.75;;;;;24.35;51.62;99293.84;5095755;27;45413;-80
2023/06/26 00:35:03;;;;;;;;;20.25;17.50;;;;;24.38;51.73;99292.72;5085468;27;45499;-80
2023/06/26 00:37:28;;;;;;;;;16.50;16.50;;;;;24.41;51.25;99299.66;5093907;27;45495;-80
2023/06/26 00:39:53;;;;;;;;;17.00;14.75;;;;;24.42;51.60;99295.97;5091252;27;45344;-80
2023/06/26 00:42:19;;;;;;;;;18.25;16.50;;;;;24.43;51.85;99297.69;5095162;27;46462;-80
2023/06/26 00:44:44;;;;;;;;;22.50;20.00;;;;;24.40;51.70;99293.44;5066896;27;45414;-80
2023/06/26 00:47:14;;;;;;;;;16.25;16.00;;;;;24.35;51.90;99296.53;5093999;27;45860;-80
2023/06/26 00:49:39;;;;;;;;;18.75;18.75;;;;;24.31;52.13;99296.97;5092488;27;45498;-80
2023/06/26 00:52:06;;;;;;;;;18.00;18.00;;;;;24.28;52.06;99302.66;5094912;27;46373;-80
2023/06/26 00:54:31;;;;;;;;;20.00;19.00;;;;;24.24;52.65;99302.09;5072559;28;45482;-80
2023/06/26 00:56:57;;;;;;;;;20.00;20.00;;;;;24.24;52.46;99298.56;5088980;27;45478;-80
2023/06/26 00:59:22;;;;;;;;;17.00;17.00;;;;;24.22;52.44;99300.50;5095479;27;45435;-80
2023/06/26 01:01:48;;;;;;;;;18.50;17.25;;;;;24.21;52.71;99301.50;5095286;27;45635;-80
2023/06/26 01:04:17;;;;;;;;;20.00;16.75;;;;;24.16;52.58;99293.84;5073511;28;45425;-80
2023/06/26 01:06:49;;;;;;;;;18.00;17.50;;;;;24.13;52.83;99301.38;5088591;27;45376;-80
2023/06/26 01:09:23;;;;;;;;;19.00;17.75;;;;;24.00;53.17;99288.19;5094316;27;45381;-80
2023/06/26 01:11:48;;;;;;;;;16.00;16.00;;;;;23.93;53.59;99293.31;5093826;27;46203;-80
2023/06/26 01:14:14;;;;;;;;;21.25;18.00;;;;;23.85;53.76;99292.28;5094986;27;45333;-80
2023/06/26 01:16:47;;;;;;;;;17.00;17.00;;;;;23.78;53.41;99291.19;5077062;27;45412;-80
2023/06/26 01:19:28;;;;;;;;;22.50;21.75;;;;;23.76;54.35;99294.00;5072313;27;45560;-80
2023/06/26 01:22:14;;;;;;;;;20.00;18.75;;;;;23.70;54.63;99288.31;5094872;27;46569;-80
2023/06/26 01:24:52;;;;;;;;;17.50;17.50;;;;;23.69;54.60;99289.31;5068759;27;45445;-80
2023/06/26 01:27:21;;;;;;;;;21.75;20.50;;;;;23.69;54.24;99286.63;5094892;27;45520;-80
2023/06/26 01:29:49;;;;;;;;;15.25;14.00;;;;;23.70;54.62;99288.31;5074413;27;45479;-80
2023/06/26 01:32:15;;;;;;;;;22.25;21.75;;;;;23.71;54.91;99292.72;5075253;27;45418;-79
2023/06/26 01:34:42;;;;;;;;;21.25;20.25;;;;;23.72;54.70;99294.41;5075227;27;45403;-80
2023/06/26 01:37:07;;;;;;;;;17.50;17.50;;;;;23.69;55.03;99292.84;5089244;27;45540;-80
2023/06/26 01:39:32;;;;;;;;;22.00;21.25;;;;;23.69;55.10;99297.38;5094185;27;45482;-79
2023/06/26 01:41:58;;;;;;;;;22.50;21.25;;;;;23.67;55.49;99300.22;5077449;27;46193;-80
2023/06/26 01:44:24;;;;;;;;;20.25;18.75;;;;;23.70;55.64;99304.47;5098488;27;45566;-80
2023/06/26 01:46:58;;;;;;;;;21.00;21.00;;;;;23.69;55.10;99309.00;5098559;27;45476;-80
2023/06/26 01:49:51;;;;;;;;;24.25;20.50;;;;;23.66;55.37;99303.91;5092899;27;45401;-80
2023/06/26 01:52:17;;;;;;;;;17.50;17.50;;;;;23.65;55.28;99313.81;5087505;27;46143;-81
2023/06/26 01:55:10;;;;;;;;;20.75;20.75;;;;;23.63;55.97;99313.09;5086686;27;45454;-80
2023/06/26 01:57:36;;;;;;;;;19.00;19.00;;;;;23.64;55.42;99300.50;5066513;27;45381;-80
2023/06/26 02:00:03;;;;;;;;;18.50;17.75;;;;;23.62;55.02;99302.50;5080859;27;45709;-80
2023/06/26 02:02:29;;;;;;;;;23.75;20.00;;;;;23.61;55.50;99308.88;5096800;27;46441;-80
2023/06/26 02:04:55;;;;;;;;;25.50;22.75;;;;;23.65;55.67;99312.97;5077212;27;45595;-80
2023/06/26 02:07:20;;;;;;;;;23.50;22.25;;;;;23.63;55.43;99307.72;5086823;27;45578;-80
2023/06/26 02:09:45;;;;;;;;;21.50;20.25;;;;;23.65;56.26;99312.97;5096245;27;45579;-80
2023/06/26 02:12:11;;;;;;;;;20.50;19.75;;;;;23.63;56.68;99315.78;5095714;27;46586;-80
2023/06/26 02:14:36;;;;;;;;;20.25;18.00;;;;;23.60;56.92;99308.03;5089159;27;45529;-80
2023/06/26 02:17:02;;;;;;;;;22.50;21.00;;;;;23.55;57.47;99318.34;5097112;27;45384;-80
2023/06/26 02:19:27;;;;;;;;;25.00;20.25;;;;;23.45;57.92;99312.06;5093633;27;45482;-80
2023/06/26 02:21:55;;;;;;;;;20.50;19.75;;;;;23.41;58.04;99325.94;5088648;27;45502;-80
2023/06/26 02:24:21;;;;;;;;;23.25;21.25;;;;;23.35;58.25;99318.38;5097131;27;45403;-79
2023/06/26 02:26:46;;;;;;;;;22.00;22.00;;;;;23.26;58.63;99320.94;5091041;27;47248;-79
2023/06/26 02:29:12;;;;;;;;;23.00;22.00;;;;;23.21;58.63;99319.63;5097860;27;45476;-79
2023/06/26 02:31:38;;;;;;;;;27.25;23.50;;;;;23.16;59.14;99324.56;5095291;27;45489;-79
2023/06/26 02:34:04;;;;;;;;;25.75;21.50;;;;;23.12;58.80;99326.69;5097382;27;45414;-79
2023/06/26 02:36:29;;;;;;;;;22.25;21.00;;;;;;;;5096204;27;45347;-80
2023/06/26 02:38:55;;;;;;;;;22.25;21.50;;;;;23.12;59.16;99321.31;5097304;27;45405;-80
2023/06/26 02:41:20;;;;;;;;;22.50;22.50;;;;;23.07;59.24;99314.63;5097577;27;46350;-80
2023/06/26 02:43:45;;;;;;;;;22.00;20.50;;;;;22.98;59.07;99322.50;5096780;27;45487;-80
2023/06/26 02:46:11;;;;;;;;;20.00;18.25;;;;;22.99;59.53;99326.03;5093926;27;45301;-80
2023/06/26 02:48:36;;;;;;;;;20.75;20.25;;;;;22.88;59.63;99326.16;5111356;27;45518;-80
2023/06/26 02:51:01;;;;;;;;;21.50;20.50;;;;;22.80;60.03;99324.13;5096777;27;46154;-80
2023/06/26 02:53:27;;;;;;;;;22.50;20.25;;;;;22.79;59.70;99335.84;5096396;27;45452;-79
2023/06/26 02:55:52;;;;;;;;;20.00;17.50;;;;;22.73;59.84;99327.47;5090649;27;45308;-79
2023/06/26 02:58:18;;;;;;;;;21.75;21.00;;;;;22.71;59.85;99334.81;5093099;27;45545;-79
2023/06/26 03:00:44;;;;;;;;;24.00;21.25;;;;;22.67;60.55;99326.13;5095414;27;46502;-79
2023/06/26 03:03:10;;;;;;;;;22.25;22.25;;;;;22.67;60.55;99331.53;5078755;27;45436;-80
2023/06/26 03:05:35;;;;;;;;;19.50;17.50;;;;;22.66;60.29;99329.81;5093374;27;45505;-79
2023/06/26 03:08:02;;;;;;;;;24.50;24.50;;;;;22.68;60.23;99329.69;5093311;27;45528;-80
2023/06/26 03:10:27;;;;;;;;;22.00;20.75;;;;;22.65;60.36;99336.16;5087080;27;45514;-79
2023/06/26 03:12:52;;;;;;;;;24.00;23.50;;;;;22.60;60.20;99327.69;5070724;27;45415;-79
2023/06/26 03:15:19;;;;;;;;;21.00;19.50;;;;;22.55;60.93;99330.75;5094806;27;45767;-79
2023/06/26 03:17:44;;;;;;;;;21.50;18.75;;;;;22.53;60.04;99335.41;5096959;27;45463;-79
2023/06/26 03:20:10;;;;;;;;;21.50;21.50;;;;;22.52;60.45;99336.38;5092865;27;45361;-79
2023/06/26 03:22:36;;;;;;;;;21.25;19.50;;;;;22.50;60.29;99340.19;5095865;27;45385;-80
2023/06/26 03:25:02;;;;;;;;;21.50;21.50;;;;;22.48;60.89;99334.94;5076138;27;45432;-80
2023/06/26 03:27:28;;;;;;;;;22.50;21.25;;;;;22.53;60.25;99339.91;5096962;27;45452;-80
2023/06/26 03:29:53;;;;;;;;;21.25;21.00;;;;;22.53;60.12;99335.41;5092452;27;45543;-80
2023/06/26 03:32:18;;;;;;;;;22.50;20.50;;;;;22.53;60.96;99339.91;5092567;27;45469;-80
2023/06/26 03:34:44;;;;;;;;;20.25;19.00;;;;;22.49;61.26;99335.78;5088970;27;45369;-79
2023/06/26 03:37:09;;;;;;;;;23.00;21.25;;;;;22.45;61.27;99342.44;5096541;27;45427;-80
2023/06/26 03:39:35;;;;;;;;;22.25;21.75;;;;;22.43;61.64;99345.25;5088099;27;46087;-80
2023/06/26 03:42:01;;;;;;;;;20.00;20.00;;;;;22.42;61.32;99346.22;5091099;27;45497;-80
2023/06/26 03:44:27;;;;;;;;;21.00;20.50;;;;;22.43;61.17;99334.50;5095943;27;45487;-80
2023/06/26 03:46:52;;;;;;;;;20.00;19.50;;;;;22.49;61.45;99341.16;5093526;27;45444;-80
2023/06/26 03:49:18;;;;;;;;;25.25;23.75;;;;;22.50;61.02;99343.72;5094886;27;46555;-80
2023/06/26 03:51:44;;;;;;;;;21.00;21.00;;;;;22.47;61.37;99335.91;5092488;27;45553;-80
2023/06/26 03:54:11;;;;;;;;;20.00;19.00;;;;;22.48;61.51;99342.13;5089520;27;45493;-80
2023/06/26 03:56:37;;;;;;;;;18.75;17.50;;;;;22.53;61.47;99347.97;5091852;27;45426;-80
2023/06/26 03:59:02;;;;;;;;;24.50;22.25;;;;;22.59;60.11;99358.22;5070987;27;47993;-80
2023/06/26 04:01:28;;;;;;;;;22.25;19.75;;;;;22.62;60.36;99361.47;5096100;27;45400;-79
2023/06/26 04:03:53;;;;;;;;;20.25;19.00;;;;;22.59;60.33;99355.53;5096020;27;45377;-80
2023/06/26 04:06:19;;;;;;;;;27.25;25.50;;;;;22.60;60.78;99354.56;5089016;27;45311;-79
2023/06/26 04:08:44;;;;;;;;;24.75;19.50;;;;;22.58;60.51;99362.75;5095217;27;46065;-80
2023/06/26 04:11:10;;;;;;;;;28.50;21.25;;;;;22.51;61.54;99363.38;5086684;27;45554;-80
2023/06/26 04:13:35;;;;;;;;;22.75;20.75;;;;;22.42;61.58;99361.50;5092662;27;45387;-80
2023/06/26 04:16:01;;;;;;;;;24.00;24.00;;;;;22.35;61.49;99369.22;5079322;27;45554;-80
2023/06/26 04:18:27;;;;;;;;;19.00;18.75;;;;;22.34;61.79;99369.34;5094774;27;45573;-80
2023/06/26 04:21:11;;;;;;;;;15.00;14.00;;;;;22.25;61.71;99371.84;5086819;27;45719;-80
2023/06/26 04:23:37;;;;;;;;;18.00;17.50;;;;;22.23;61.82;99376.47;5094627;27;45462;-61
2023/06/26 04:26:04;;;;;;;;;19.50;19.25;;;;;22.24;61.87;99385.38;5086484;27;45379;-68
2023/06/26 04:28:31;;;;;;;;;24.25;24.25;;;;;22.27;61.84;99391.38;5089446;27;45372;-69
2023/06/26 04:30:57;;;;;;;;;22.00;21.50;;;;;22.31;61.77;99391.94;5089916;27;45387;-69
2023/06/26 04:33:23;;;;;;;;;25.75;24.00;;;;;22.36;61.86;99380.81;5089935;27;45449;-69
2023/06/26 04:35:48;;;;;;;;;25.00;22.25;;;;;22.39;61.43;99386.78;5089861;27;45379;-69
2023/06/26 04:38:15;;;;;;;;;21.75;20.25;;;;;22.41;61.98;99384.81;5082741;27;46250;-69
2023/06/26 04:40:40;;;;;;;;;21.25;20.25;;;;;22.42;61.74;99391.03;5105035;27;45494;-69
2023/06/26 04:43:06;;;;;;;;;23.50;23.00;;;;;22.41;61.70;99389.34;5068979;27;45542;-69
2023/06/26 04:45:31;;;;;;;;;22.25;20.25;;;;;22.42;62.14;99391.91;5088621;27;45562;-69
2023/06/26 04:47:57;;;;;;;;;25.50;23.75;;;;;22.43;62.18;99390.06;5087443;27;46564;-69
2023/06/26 04:50:23;;;;;;;;;22.25;20.00;;;;;22.45;62.25;99388.97;5090692;27;45586;-69
2023/06/26 04:52:48;;;;;;;;;25.25;24.75;;;;;22.47;61.80;99394.19;5072316;27;45982;-69
2023/06/26 04:55:13;;;;;;;;;22.75;21.75;;;;;22.45;61.68;99390.78;5092001;27;45597;-68
2023/06/26 04:57:39;;;;;;;;;25.00;20.00;;;;;22.43;61.43;99398.97;5096773;27;47771;-68
2023/06/26 05:00:09;;;;;;;;;22.75;20.75;;;;;22.37;62.31;99399.47;5088796;27;45451;-68
2023/06/26 05:02:35;;;;;;;;;22.50;19.50;;;;;22.31;62.47;99396.44;5082480;27;45465;-69
2023/06/26 05:05:01;;;;;;;;;22.00;21.50;;;;;22.28;62.30;99392.22;5090141;27;45377;-68
2023/06/26 05:07:26;;;;;;;;;21.75;21.25;;;;;22.31;62.06;99393.75;5092320;27;46032;-69
2023/06/26 05:09:51;;;;;;;;;21.25;19.25;;;;;22.35;61.77;99390.69;5066000;27;45543;-68
2023/06/26 05:12:17;;;;;;;;;21.25;19.75;;;;;22.40;61.70;99387.63;5087436;27;45451;-69
2023/06/26 05:14:42;;;;;;;;;20.50;19.50;;;;;22.48;62.15;99391.34;5092031;27;45453;-69
2023/06/26 05:17:07;;;;;;;;;23.75;21.50;;;;;22.54;61.75;99390.84;5089079;27;46345;-69
2023/06/26 05:19:33;;;;;;;;;20.50;19.50;;;;;22.58;61.52;99397.69;5082974;27;45480;-69
2023/06/26 05:22:01;;;;;;;;;25.25;21.75;;;;;22.59;62.23;99398.53;5082891;27;45511;-69
2023/06/26 05:24:28;;;;;;;;;22.75;22.75;;;;;22.59;62.16;99391.31;5091185;27;45547;-69
2023/06/26 05:26:54;;;;;;;;;23.00;23.00;;;;;22.62;62.08;99392.91;5073247;27;46517;-70
2023/06/26 05:29:19;;;;;;;;;23.75;23.00;;;;;22.64;62.45;99390.91;5092999;27;45331;-70
2023/06/26 05:31:47;;;;;;;;;25.50;24.75;;;;;22.67;62.50;99397.84;5089389;27;45679;-69
2023/06/26 05:34:13;;;;;;;;;26.00;24.50;;;;;22.70;61.94;99394.91;5092116;27;45461;-69
2023/06/26 05:36:41;;;;;;;;;29.75;28.25;;;;;22.70;62.11;99389.53;5087834;27;46281;-69
2023/06/26 05:39:06;;;;;;;;;22.50;21.00;;;;;22.73;62.52;99402.72;5091468;27;45314;-69
2023/06/26 05:41:32;;;;;;;;;23.50;22.50;;;;;22.79;62.26;99389.63;5087792;27;45391;-67
2023/06/26 05:43:57;;;;;;;;;17.50;17.50;;;;;22.87;61.64;99399.72;5092744;27;45492;-69
2023/06/26 05:46:23;;;;;;;;;22.25;20.25;;;;;22.92;61.23;99387.59;5089047;27;45597;-68
2023/06/26 05:48:48;;;;;;;;;24.75;23.00;;;;;22.98;61.05;99388.88;5090106;27;45391;-69
2023/06/26 05:51:14;;;;;;;;;26.25;25.25;;;;;23.05;60.88;99392.75;5090386;27;45475;-69
2023/06/26 05:53:40;;;;;;;;;25.50;24.25;;;;;23.14;60.76;99389.25;5073004;27;45455;-69
2023/06/26 05:56:06;;;;;;;;;22.75;18.25;;;;;23.22;60.50;99385.91;5086789;27;46175;-69
2023/06/26 05:58:32;;;;;;;;;25.75;24.00;;;;;23.29;60.28;99389.75;5062938;27;45552;-69
2023/06/26 06:00:58;;;;;;;;;23.25;21.75;;;;;23.37;60.52;99387.22;5088854;27;45384;-69
2023/06/26 06:03:23;;;;;;;;;25.25;24.25;;;;;23.45;60.21;99383.88;5092105;27;45529;-72
2023/06/26 06:05:49;;;;;;;;;24.25;24.25;;;;;23.52;60.01;99385.91;5090834;27;45560;-67
2023/06/26 06:08:14;;;;;;;;;27.75;25.00;;;;;23.59;59.61;99378.13;5092306;27;45499;-68
2023/06/26 06:10:39;;;;;;;;;21.00;20.00;;;;;23.65;58.79;99386.50;5086292;27;45372;-67
2023/06/26 06:13:05;;;;;;;;;22.50;21.25;;;;;23.71;58.78;99379.72;5090161;27;45450;-67
2023/06/26 06:15:30;;;;;;;;;21.50;21.00;;;;;23.76;58.41;99374.78;5088869;27;46083;-67
2023/06/26 06:17:56;;;;;;;;;20.75;20.75;;;;;23.81;57.87;99377.03;5073150;27;45751;-67
2023/06/26 06:20:21;;;;;;;;;24.50;22.75;;;;;23.85;57.92;99373.06;5087762;27;45423;-67
2023/06/26 06:22:48;;;;;;;;;21.75;20.75;;;;;23.88;58.35;99373.66;5088173;27;45469;-67
2023/06/26 06:25:14;;;;;;;;;25.25;23.00;;;;;23.95;58.29;99372.13;5085165;27;45404;-67
2023/06/26 06:27:39;;;;;;;;;23.50;23.50;;;;;23.99;58.40;99375.34;5088797;27;45537;-67
2023/06/26 06:30:05;;;;;;;;;28.25;23.75;;;;;24.01;58.18;99379.63;5092960;27;46104;-67
2023/06/26 06:32:30;;;;;;;;;24.50;24.25;;;;;24.06;58.02;99370.28;5093075;27;45508;-67
2023/06/26 06:34:57;;;;;;;;;22.50;20.00;;;;;24.08;57.71;99377.22;5073177;27;46127;-67
2023/06/26 06:37:22;;;;;;;;;27.50;23.75;;;;;24.11;57.58;99386.88;5092607;27;45431;-68
2023/06/26 06:39:48;;;;;;;;;17.50;17.50;;;;;24.11;56.87;99378.78;5092302;27;45630;-67
2023/06/26 06:42:13;;;;;;;;;21.75;18.00;;;;;24.12;57.36;99375.09;5094442;27;45463;-67
2023/06/26 06:44:38;;;;;;;;;27.00;24.50;;;;;24.14;57.35;99379.34;5087376;27;46206;-67
2023/06/26 06:47:04;;;;;;;;;24.50;23.25;;;;;24.16;57.24;99377.34;5095013;27;45455;-67
2023/06/26 06:49:29;;;;;;;;;24.00;22.75;;;;;24.20;57.12;99376.09;5094686;27;45455;-67
2023/06/26 06:51:54;;;;;;;;;21.75;20.75;;;;;24.24;56.77;99376.69;5092764;27;45547;-66
2023/06/26 06:54:20;;;;;;;;;23.75;22.25;;;;;24.31;56.42;99369.72;5094530;27;45422;-66
2023/06/26 06:56:45;;;;;;;;;21.00;21.00;;;;;24.35;55.90;99368.47;5089443;27;45423;-68
2023/06/26 06:59:11;;;;;;;;;24.50;22.50;;;;;24.38;55.58;99370.03;5095738;27;45860;-67
2023/06/26 07:01:36;;;;;;;;;23.75;21.75;;;;;24.39;55.74;99369.88;5092873;27;45563;-67
2023/06/26 07:04:03;;;;;;;;;15.75;14.50;;;;;24.42;55.56;99366.91;5094400;27;46471;-68
2023/06/26 07:06:29;;;;;;;;;22.00;20.75;;;;;24.45;55.18;99366.63;5093078;27;45407;-67
2023/06/26 07:08:54;;;;;;;;;23.75;22.00;;;;;24.50;54.93;99379.66;5092103;27;45343;-68
2023/06/26 07:11:20;;;;;;;;;19.00;18.25;;;;;24.51;54.61;99378.66;5090652;27;45693;-68
2023/06/26 07:13:45;;;;;;;;;21.25;20.50;;;;;24.48;54.66;99382.47;5094906;27;46592;-66
2023/06/26 07:16:11;;;;;;;;;25.00;19.50;;;;;24.53;54.40;99376.66;5072872;28;45360;-68
2023/06/26 07:18:38;;;;;;;;;25.50;19.00;;;;;24.52;54.21;99378.53;5092378;27;45463;-67
2023/06/26 07:21:03;;;;;;;;;21.25;19.25;;;;;24.54;54.01;99376.53;5092803;27;45801;-67
2023/06/26 07:23:29;;;;;;;;;20.75;18.00;;;;;24.56;54.62;99371.00;5094918;27;46271;-67
2023/06/26 07:25:54;;;;;;;;;20.50;19.50;;;;;24.50;54.66;99374.25;5089714;27;45378;-67
2023/06/26 07:28:19;;;;;;;;;20.25;18.50;;;;;24.44;54.91;99374.84;5094832;27;45444;-67
2023/06/26 07:30:45;;;;;;;;;20.00;20.00;;;;;24.44;55.40;99372.16;5091986;27;45814;-67
2023/06/26 07:33:10;;;;;;;;;19.50;19.50;;;;;24.47;55.23;99369.16;5095236;27;46462;-67
2023/06/26 07:35:36;;;;;;;;;24.00;21.25;;;;;24.52;55.05;99369.56;5091838;27;45458;-67
2023/06/26 07:38:01;;;;;;;;;21.25;19.75;;;;;24.50;55.22;99376.94;5075470;27;45473;-67
2023/06/26 07:40:27;;;;;;;;;24.00;22.00;;;;;24.49;55.41;99369.84;5090596;27;45456;-67
2023/06/26 07:42:53;;;;;;;;;27.50;27.50;;;;;24.54;55.43;99364.91;5093124;27;45994;-66
2023/06/26 07:45:19;;;;;;;;;20.25;20.25;;;;;24.58;55.15;99366.31;5075047;27;45381;-65
2023/06/26 07:47:45;;;;;;;;;23.75;22.50;;;;;24.62;54.89;99365.03;5075402;27;45447;-65
2023/06/26 07:50:11;;;;;;;;;23.25;21.75;;;;;24.69;54.73;99363.44;5092456;27;45544;-66
2023/06/26 07:52:36;;;;;;;;;18.00;18.00;;;;;24.71;54.13;99358.75;5075397;27;45723;-66
2023/06/26 07:55:03;;;;;;;;;26.25;23.50;;;;;24.76;53.98;99363.72;5093474;27;45434;-66
2023/06/26 07:57:29;;;;;;;;;24.75;23.75;;;;;24.81;53.89;99366.81;5093922;27;45513;-66
2023/06/26 07:59:55;;;;;;;;;23.75;21.00;;;;;24.86;53.88;99357.31;5094101;27;45510;-65
2023/06/26 08:02:21;;;;;;;;;22.00;20.75;;;;;24.97;53.47;99353.59;5094241;27;45656;-66
2023/06/26 08:04:46;;;;;;;;;25.00;25.00;;;;;25.05;53.43;99353.72;5094300;27;45516;-66
2023/06/26 08:07:13;;;;;;;;;20.25;20.25;;;;;25.14;53.04;99360.06;5075533;27;46010;-65
2023/06/26 08:09:39;;;;;;;;;22.50;21.50;;;;;25.20;53.23;99352.25;5093578;27;45604;-68
2023/06/26 08:12:05;;;;;;;;;21.75;19.00;;;;;25.29;53.19;99353.22;5093603;27;45574;-65
2023/06/26 08:14:31;;;;;;;;;23.00;23.00;;;;;25.33;52.95;99358.16;5094088;27;45455;-66
2023/06/26 08:16:57;;;;;;;;;16.25;14.50;;;;;25.38;53.11;99350.47;5094422;27;45455;-66
2023/06/26 08:19:22;;;;;;;;;25.25;23.50;;;;;25.43;52.84;99352.72;5093273;27;45460;-66
2023/06/26 08:21:48;;;;;;;;;24.25;23.25;;;;;25.48;52.93;99353.09;5093509;27;45728;-65
2023/06/26 08:24:18;;;;;;;;;21.50;21.50;;;;;25.56;52.62;99358.59;5093085;27;45525;-66
2023/06/26 08:26:46;;;;;;;;;26.75;24.50;;;;;25.64;52.86;99347.06;5093718;27;45443;-67
2023/06/26 08:29:11;;;;;;;;;22.25;22.25;;;;;25.72;52.93;99353.44;5093798;27;45648;-67
2023/06/26 08:31:38;;;;;;;;;23.75;21.50;;;;;25.82;52.67;99347.94;5092814;27;46226;-67
2023/06/26 08:34:04;;;;;;;;;24.25;22.75;;;;;25.88;52.68;99339.25;5093682;27;45522;-66
2023/06/26 08:36:29;;;;;;;;;27.00;23.00;;;;;25.95;52.29;99347.59;5075249;27;45589;-67
2023/06/26 08:38:54;;;;;;;;;24.75;23.75;;;;;25.99;52.48;99340.84;5092698;27;45479;-67
2023/06/26 08:41:20;;;;;;;;;20.75;19.75;;;;;26.06;52.04;99337.41;5092916;27;46692;-67
2023/06/26 08:43:46;;;;;;;;;25.25;20.50;;;;;26.12;52.53;99333.22;5092765;27;45457;-66
2023/06/26 08:46:11;;;;;;;;;19.00;18.50;;;;;26.21;52.01;99332.28;5093386;27;45395;-66
2023/06/26 08:48:37;;;;;;;;;22.00;20.00;;;;;26.28;51.91;99322.56;5092180;27;45385;-67
2023/06/26 08:51:11;;;;;;;;;19.50;18.00;;;;;26.40;52.38;99329.44;5091931;27;46353;-66
2023/06/26 08:54:00;;;;;;;;;22.50;20.50;;;;;26.52;52.27;99323.78;5072300;27;45439;-67
2023/06/26 08:56:32;;;;;;;;;24.00;22.25;;;;;26.57;52.18;99321.44;5074389;27;45544;-66
2023/06/26 08:58:58;;;;;;;;;22.00;22.00;;;;;26.65;52.16;99329.59;5092911;27;45510;-66
2023/06/26 09:01:24;;;;;;;;;24.25;23.00;;;;;26.75;52.08;99330.38;5074051;27;45516;-67
2023/06/26 09:03:51;;;;;;;;;25.75;21.50;;;;;26.85;51.92;99320.28;5091587;27;45424;-66
2023/06/26 09:06:18;;;;;;;;;20.00;20.00;;;;;26.93;51.71;99323.03;5092017;27;45542;-67
2023/06/26 09:08:43;;;;;;;;;22.00;21.75;;;;;27.01;51.53;99327.66;5091570;27;45451;-66
2023/06/26 09:11:08;;;;;;;;;24.00;22.25;;;;;27.08;51.25;99323.31;5092210;27;46444;-66
2023/06/26 09:13:34;;;;;;;;;23.25;21.25;;;;;27.18;51.47;99320.47;5091596;27;45478;-65
2023/06/26 09:16:05;;;;;;;;;21.75;21.00;;;;;27.27;51.15;99324.94;5091613;27;45423;-66
2023/06/26 09:18:32;;;;;;;;;25.25;24.50;;;;;27.36;50.81;99334.78;5091374;27;45448;-65
2023/06/26 09:20:58;;;;;;;;;21.75;20.25;;;;;27.41;50.38;99332.44;5092117;27;45439;-66
2023/06/26 09:23:23;;;;;;;;;27.25;23.25;;;;;27.47;50.44;99325.53;5093094;27;45836;-65
2023/06/26 09:25:51;;;;;;;;;24.50;22.25;;;;;27.53;51.20;99323.00;5075010;27;45477;-65
2023/06/26 09:28:17;;;;;;;;;21.50;21.50;;;;;27.60;50.68;99331.34;5057778;27;45594;-66
2023/06/26 09:30:46;;;;;;;;;23.75;22.25;;;;;27.68;50.28;99328.66;5092561;27;46507;-65
2023/06/26 09:33:16;;;;;;;;;23.75;22.00;;;;;27.74;50.24;99338.84;5093021;27;45550;-66
2023/06/26 09:35:42;;;;;;;;;19.25;18.25;;;;;27.78;50.52;99332.94;5092404;27;45467;-66
2023/06/26 09:38:07;;;;;;;;;22.50;20.50;;;;;27.83;49.95;99334.25;5057091;27;45419;-66
2023/06/26 09:40:35;;;;;;;;;20.75;19.75;;;;;27.87;50.06;99333.78;5092338;27;45511;-66
2023/06/26 09:43:19;;;;;;;;;24.25;21.25;;;;;27.91;50.49;99320.75;5092238;27;45466;-66
2023/06/26 09:45:44;;;;;;;;;19.75;19.75;;;;;27.96;50.33;99321.09;5091923;27;45483;-66
2023/06/26 09:48:11;;;;;;;;;21.75;21.75;;;;;28.02;49.66;99325.84;5092298;27;45301;-67
2023/06/26 09:50:40;;;;;;;;;23.25;23.25;;;;;28.08;49.88;99317.03;5090287;27;46199;-66
2023/06/26 09:53:10;;;;;;;;;19.75;19.00;;;;;28.17;49.59;99315.16;5091626;27;45441;-66
2023/06/26 09:55:37;;;;;;;;;27.50;23.75;;;;;28.19;48.70;99322.16;5098053;27;45435;-67
2023/06/26 09:58:03;;;;;;;;;24.50;24.50;;;;;28.23;49.72;99311.81;5092545;27;45559;-67
2023/06/26 10:00:29;;;;;;;;;25.00;22.25;;;;;28.29;49.71;99309.28;5071017;28;45467;-67
2023/06/26 10:02:55;;;;;;;;;21.75;21.50;;;;;28.35;48.71;99313.16;5092757;27;45380;-67
2023/06/26 10:05:20;;;;;;;;;28.75;23.50;;;;;28.39;49.77;99319.97;5077237;27;45928;-67
2023/06/26 10:07:47;;;;;;;;;25.50;22.25;;;;;28.43;49.07;99313.19;5095263;27;45533;-66
2023/06/26 10:10:15;;;;;;;;;19.00;19.00;;;;;28.48;50.38;99308.09;5096491;27;47464;-67
2023/06/26 10:12:40;;;;;;;;;19.50;18.75;;;;;28.52;49.75;99314.00;5095445;27;45536;-67
2023/06/26 10:15:12;;;;;;;;;23.50;23.25;;;;;28.55;49.78;99321.81;5096260;27;45645;-66
2023/06/26 10:17:42;;;;;;;;;18.00;18.00;;;;;28.59;49.20;99328.59;5094649;27;45381;-66
2023/06/26 10:20:09;;;;;;;;;19.75;19.25;;;;;28.62;49.41;99314.69;5095685;27;46317;-67
2023/06/26 10:22:44;;;;;;;;;20.50;18.50;;;;;28.67;49.35;99304.16;5095446;27;45548;-66
2023/06/26 10:25:12;;;;;;;;;16.50;16.50;;;;;28.76;49.15;99308.56;5095158;27;45538;-67
2023/06/26 10:27:45;;;;;;;;;15.00;15.00;;;;;28.78;49.35;99315.50;5095625;27;45498;-66
2023/06/26 10:30:16;;;;;;;;;17.00;17.00;;;;;28.77;49.55;99345.53;5094766;27;46327;-66
2023/06/26 10:32:42;;;;;;;;;21.50;20.50;;;;;28.76;48.63;99311.28;5095840;27;45545;-66
2023/06/26 10:35:09;;;;;;;;;17.50;16.75;;;;;28.79;49.29;99314.53;5092878;27;45571;-66
2023/06/26 10:37:47;;;;;;;;;19.00;18.00;;;;;28.86;49.74;99301.09;5093421;27;45640;-66
2023/06/26 10:40:14;;;;;;;;;16.75;16.75;;;;;28.90;49.30;99309.75;5075296;27;47552;-66
2023/06/26 10:42:40;;;;;;;;;20.75;18.50;;;;;28.89;49.47;99324.31;5093950;27;45313;-65
2023/06/26 10:45:13;;;;;;;;;21.75;20.00;;;;;28.88;48.95;99307.19;5093933;27;45471;-66
2023/06/26 10:47:41;;;;;;;;;21.25;21.00;;;;;28.89;49.20;99316.19;5059535;27;45347;-66
2023/06/26 10:50:25;;;;;;;;;16.75;15.75;;;;;28.93;48.79;99328.41;5092175;27;46316;-66
2023/06/26 10:53:26;;;;;;;;;17.00;15.50;;;;;28.98;49.32;99293.44;5075949;27;46074;-67
2023/06/26 10:56:01;;;;;;;;;21.00;20.25;;;;;28.97;48.61;99289.03;5066600;27;45447;-66
2023/06/26 10:58:41;;;;;;;;;18.75;17.75;;;;;28.94;48.74;99302.94;5093819;27;45565;-66
2023/06/26 11:01:39;;;;;;;;;21.25;21.25;;;;;28.94;48.40;99306.50;5092427;27;45985;-66
2023/06/26 11:04:06;;;;;;;;;15.50;12.50;;;;;28.94;49.05;99314.66;5063089;27;45607;-66
2023/06/26 11:06:34;;;;;;;;;13.00;12.50;;;;;28.96;48.79;99317.19;5092512;27;45519;-65
2023/06/26 11:09:05;;;;;;;;;20.25;19.00;;;;;29.01;48.07;99301.22;5091755;27;45454;-65
2023/06/26 11:12:04;;;;;;;;;15.75;13.25;;;;;29.04;48.47;99304.44;5089213;27;46894;-65
2023/06/26 11:14:31;;;;;;;;;17.20;16.20;;;;;29.04;48.05;99323.44;5089660;27;45700;-66
2023/06/26 11:16:57;;;;;;;;;15.75;15.75;;;;;29.03;48.31;99304.59;5092411;27;45428;-65